sensor_id;sensor_type;location;lat;lon;timestamp;temperature;humidity
24011;DHT22;12217;50.792;4.372;2023-02-15T00:01:08;20.40;90.70
24011;DHT22;12217;50.792;4.372;2023-02-15T00:03:35;20.40;90.70
24011;DHT22;12217;50.792;4.372;2023-02-15T00:06:01;20.40;90.60
24011;DHT22;12217;50.792;4.372;2023-02-15T00:08:27;20.30;90.60
24011;DHT22;12217;50.792;4.372;2023-02-15T00:10:53;20.30;90.60
24011;DHT22;12217;50.792;4.372;2023-02-15T00:13:18;20.30;90.50
24011;DHT22;12217;50.792;4.372;2023-02-15T00:15:44;20.30;90.50
24011;DHT22;12217;50.792;4.372;2023-02-15T00:18:10;20.30;90.50
24011;DHT22;12217;50.792;4.372;2023-02-15T00:20:35;20.30;90.50
24011;DHT22;12217;50.792;4.372;2023-02-15T00:23:01;20.30;90.50
24011;DHT22;12217;50.792;4.372;2023-02-15T00:25:27;20.30;90.50
24011;DHT22;12217;50.792;4.372;2023-02-15T00:27:52;20.30;90.50
24011;DHT22;12217;50.792;4.372;2023-02-15T00:30:18;20.30;90.50
24011;DHT22;12217;50.792;4.372;2023-02-15T00:32:43;20.30;90.40
24011;DHT22;12217;50.792;4.372;2023-02-15T00:35:09;20.30;90.50
24011;DHT22;12217;50.792;4.372;2023-02-15T00:37:35;20.30;90.40
24011;DHT22;12217;50.792;4.372;2023-02-15T00:40:01;20.30;90.40
24011;DHT22;12217;50.792;4.372;2023-02-15T00:42:27;20.30;90.40
24011;DHT22;12217;50.792;4.372;2023-02-15T00:44:52;20.20;90.30
24011;DHT22;12217;50.792;4.372;2023-02-15T00:47:18;20.20;90.30
24011;DHT22;12217;50.792;4.372;2023-02-15T00:49:44;20.20;90.20
24011;DHT22;12217;50.792;4.372;2023-02-15T00:52:09;20.30;90.20
24011;DHT22;12217;50.792;4.372;2023-02-15T00:54:35;20.20;90.10
24011;DHT22;12217;50.792;4.372;2023-02-15T00:57:01;20.20;90.10
24011;DHT22;12217;50.792;4.372;2023-02-15T00:59:26;20.20;90.10
24011;DHT22;12217;50.792;4.372;2023-02-15T01:01:52;20.20;90.00
24011;DHT22;12217;50.792;4.372;2023-02-15T01:04:18;20.20;90.00
24011;DHT22;12217;50.792;4.372;2023-02-15T01:06:43;20.20;90.00
24011;DHT22;12217;50.792;4.372;2023-02-15T01:09:09;20.20;90.00
24011;DHT22;12217;50.792;4.372;2023-02-15T01:11:35;20.20;90.00
24011;DHT22;12217;50.792;4.372;2023-02-15T01:14:00;20.20;90.00
24011;DHT22;12217;50.792;4.372;2023-02-15T01:16:28;20.20;90.00
24011;DHT22;12217;50.792;4.372;2023-02-15T01:18:54;20.20;90.00
24011;DHT22;12217;50.792;4.372;2023-02-15T01:21:22;20.20;90.00
24011;DHT22;12217;50.792;4.372;2023-02-15T01:23:48;20.10;90.00
24011;DHT22;12217;50.792;4.372;2023-02-15T01:26:15;20.10;90.00
24011;DHT22;12217;50.792;4.372;2023-02-15T01:28:41;20.10;90.00
24011;DHT22;12217;50.792;4.372;2023-02-15T01:31:16;20.10;90.10
24011;DHT22;12217;50.792;4.372;2023-02-15T01:33:42;20.10;90.10
24011;DHT22;12217;50.792;4.372;2023-02-15T01:36:08;20.10;90.20
24011;DHT22;12217;50.792;4.372;2023-02-15T01:38:35;20.10;90.20
24011;DHT22;12217;50.792;4.372;2023-02-15T01:41:00;20.10;90.20
24011;DHT22;12217;50.792;4.372;2023-02-15T01:43:47;20.10;90.20
24011;DHT22;12217;50.792;4.372;2023-02-15T01:46:16;20.00;90.50
24011;DHT22;12217;50.792;4.372;2023-02-15T01:48:54;20.00;90.20
24011;DHT22;12217;50.792;4.372;2023-02-15T01:51:23;20.00;90.30
24011;DHT22;12217;50.792;4.372;2023-02-15T01:54:09;20.00;90.20
24011;DHT22;12217;50.792;4.372;2023-02-15T01:56:38;20.00;90.30
24011;DHT22;12217;50.792;4.372;2023-02-15T01:59:09;20.00;90.20
24011;DHT22;12217;50.792;4.372;2023-02-15T02:01:37;19.90;90.20
24011;DHT22;12217;50.792;4.372;2023-02-15T02:06:39;19.90;90.20
24011;DHT22;12217;50.792;4.372;2023-02-15T02:09:05;19.90;90.20
24011;DHT22;12217;50.792;4.372;2023-02-15T02:11:31;20.00;90.20
24011;DHT22;12217;50.792;4.372;2023-02-15T02:13:57;19.90;90.50
24011;DHT22;12217;50.792;4.372;2023-02-15T02:33:25;19.80;90.00
24011;DHT22;12217;50.792;4.372;2023-02-15T02:36:05;19.80;90.00
24011;DHT22;12217;50.792;4.372;2023-02-15T02:41:33;19.80;90.00
24011;DHT22;12217;50.792;4.372;2023-02-15T02:47:02;19.70;89.90
24011;DHT22;12217;50.792;4.372;2023-02-15T02:49:32;19.70;89.90
24011;DHT22;12217;50.792;4.372;2023-02-15T02:52:04;19.70;89.70
24011;DHT22;12217;50.792;4.372;2023-02-15T02:54:32;19.70;89.70
24011;DHT22;12217;50.792;4.372;2023-02-15T02:57:01;19.70;89.60
24011;DHT22;12217;50.792;4.372;2023-02-15T02:59:41;19.70;89.70
24011;DHT22;12217;50.792;4.372;2023-02-15T03:02:17;19.70;89.60
24011;DHT22;12217;50.792;4.372;2023-02-15T03:04:47;19.70;89.70
24011;DHT22;12217;50.792;4.372;2023-02-15T03:07:18;19.70;89.60
24011;DHT22;12217;50.792;4.372;2023-02-15T03:09:51;19.70;90.10
24011;DHT22;12217;50.792;4.372;2023-02-15T03:12:24;19.70;89.60
24011;DHT22;12217;50.792;4.372;2023-02-15T03:15:01;19.70;89.70
24011;DHT22;12217;50.792;4.372;2023-02-15T03:17:34;19.60;89.80
24011;DHT22;12217;50.792;4.372;2023-02-15T03:20:10;19.60;90.00
24011;DHT22;12217;50.792;4.372;2023-02-15T03:22:45;19.60;90.00
24011;DHT22;12217;50.792;4.372;2023-02-15T03:25:19;19.70;90.10
24011;DHT22;12217;50.792;4.372;2023-02-15T03:27:53;19.60;90.10
24011;DHT22;12217;50.792;4.372;2023-02-15T03:30:20;19.60;90.10
24011;DHT22;12217;50.792;4.372;2023-02-15T03:32:48;19.60;90.00
24011;DHT22;12217;50.792;4.372;2023-02-15T03:35:14;19.60;90.00
24011;DHT22;12217;50.792;4.372;2023-02-15T03:37:59;19.60;90.00
24011;DHT22;12217;50.792;4.372;2023-02-15T03:40:35;19.60;90.00
24011;DHT22;12217;50.792;4.372;2023-02-15T03:48:52;19.60;89.60
24011;DHT22;12217;50.792;4.372;2023-02-15T03:51:21;19.60;89.60
24011;DHT22;12217;50.792;4.372;2023-02-15T03:54:01;19.60;89.60
24011;DHT22;12217;50.792;4.372;2023-02-15T03:56:27;19.50;89.40
24011;DHT22;12217;50.792;4.372;2023-02-15T03:58:53;19.60;89.40
24011;DHT22;12217;50.792;4.372;2023-02-15T04:01:40;19.50;89.30
24011;DHT22;12217;50.792;4.372;2023-02-15T04:04:33;19.50;89.30
24011;DHT22;12217;50.792;4.372;2023-02-15T04:07:01;19.50;89.20
24011;DHT22;12217;50.792;4.372;2023-02-15T04:09:27;19.50;89.30
24011;DHT22;12217;50.792;4.372;2023-02-15T04:12:12;19.50;89.20
24011;DHT22;12217;50.792;4.372;2023-02-15T04:14:37;19.50;89.20
24011;DHT22;12217;50.792;4.372;2023-02-15T04:17:21;19.50;89.10
24011;DHT22;12217;50.792;4.372;2023-02-15T04:19:47;19.50;89.00
24011;DHT22;12217;50.792;4.372;2023-02-15T04:22:31;19.40;88.90
24011;DHT22;12217;50.792;4.372;2023-02-15T04:25:15;19.40;88.90
24011;DHT22;12217;50.792;4.372;2023-02-15T04:27:43;19.40;88.90
24011;DHT22;12217;50.792;4.372;2023-02-15T04:30:12;19.40;88.90
24011;DHT22;12217;50.792;4.372;2023-02-15T04:32:38;19.40;88.80
24011;DHT22;12217;50.792;4.372;2023-02-15T04:35:05;19.40;88.80
24011;DHT22;12217;50.792;4.372;2023-02-15T04:37:31;19.40;88.70
24011;DHT22;12217;50.792;4.372;2023-02-15T04:39:57;19.40;88.60
24011;DHT22;12217;50.792;4.372;2023-02-15T04:42:24;19.40;89.30
24011;DHT22;12217;50.792;4.372;2023-02-15T04:44:51;19.40;88.50
24011;DHT22;12217;50.792;4.372;2023-02-15T04:47:17;19.40;88.50
24011;DHT22;12217;50.792;4.372;2023-02-15T04:49:43;19.40;88.50
24011;DHT22;12217;50.792;4.372;2023-02-15T04:52:08;19.30;88.40
24011;DHT22;12217;50.792;4.372;2023-02-15T04:54:34;19.30;88.30
24011;DHT22;12217;50.792;4.372;2023-02-15T04:57:00;19.30;88.30
24011;DHT22;12217;50.792;4.372;2023-02-15T04:59:26;19.30;88.30
24011;DHT22;12217;50.792;4.372;2023-02-15T05:01:52;19.30;88.20
24011;DHT22;12217;50.792;4.372;2023-02-15T05:04:17;19.30;88.20
24011;DHT22;12217;50.792;4.372;2023-02-15T05:06:43;19.30;88.10
24011;DHT22;12217;50.792;4.372;2023-02-15T05:09:10;19.30;88.10
24011;DHT22;12217;50.792;4.372;2023-02-15T05:11:36;19.30;88.10
24011;DHT22;12217;50.792;4.372;2023-02-15T05:14:02;19.30;88.10
24011;DHT22;12217;50.792;4.372;2023-02-15T05:16:27;19.30;88.00
24011;DHT22;12217;50.792;4.372;2023-02-15T05:18:53;19.20;88.00
24011;DHT22;12217;50.792;4.372;2023-02-15T05:21:19;19.30;87.90
24011;DHT22;12217;50.792;4.372;2023-02-15T05:23:45;19.30;87.90
24011;DHT22;12217;50.792;4.372;2023-02-15T05:26:17;19.30;87.70
24011;DHT22;12217;50.792;4.372;2023-02-15T05:29:03;19.20;87.50
24011;DHT22;12217;50.792;4.372;2023-02-15T05:31:28;19.30;87.40
24011;DHT22;12217;50.792;4.372;2023-02-15T05:33:54;19.30;87.30
24011;DHT22;12217;50.792;4.372;2023-02-15T05:36:20;19.30;87.40
24011;DHT22;12217;50.792;4.372;2023-02-15T05:38:45;19.30;87.40
24011;DHT22;12217;50.792;4.372;2023-02-15T05:41:11;19.30;87.50
24011;DHT22;12217;50.792;4.372;2023-02-15T05:43:38;19.20;87.30
24011;DHT22;12217;50.792;4.372;2023-02-15T05:46:04;19.30;87.30
24011;DHT22;12217;50.792;4.372;2023-02-15T05:48:30;19.30;87.30
24011;DHT22;12217;50.792;4.372;2023-02-15T05:53:27;19.30;87.40
24011;DHT22;12217;50.792;4.372;2023-02-15T05:55:53;19.40;87.30
24011;DHT22;12217;50.792;4.372;2023-02-15T05:58:28;19.40;87.10
24011;DHT22;12217;50.792;4.372;2023-02-15T06:00:54;19.40;86.90
24011;DHT22;12217;50.792;4.372;2023-02-15T06:03:20;19.60;86.80
24011;DHT22;12217;50.792;4.372;2023-02-15T06:05:45;19.60;86.50
24011;DHT22;12217;50.792;4.372;2023-02-15T06:08:11;19.70;86.20
24011;DHT22;12217;50.792;4.372;2023-02-15T06:10:37;19.70;85.90
24011;DHT22;12217;50.792;4.372;2023-02-15T06:13:02;19.80;85.70
24011;DHT22;12217;50.792;4.372;2023-02-15T06:15:28;19.80;85.50
24011;DHT22;12217;50.792;4.372;2023-02-15T06:17:53;19.80;85.40
24011;DHT22;12217;50.792;4.372;2023-02-15T06:20:19;19.90;85.30
24011;DHT22;12217;50.792;4.372;2023-02-15T06:22:45;20.00;85.10
24011;DHT22;12217;50.792;4.372;2023-02-15T06:25:11;20.00;84.90
24011;DHT22;12217;50.792;4.372;2023-02-15T06:27:37;20.00;84.70
24011;DHT22;12217;50.792;4.372;2023-02-15T06:30:07;20.10;84.70
24011;DHT22;12217;50.792;4.372;2023-02-15T06:32:33;20.10;84.60
24011;DHT22;12217;50.792;4.372;2023-02-15T06:34:58;20.10;84.50
24011;DHT22;12217;50.792;4.372;2023-02-15T06:37:24;20.10;84.40
24011;DHT22;12217;50.792;4.372;2023-02-15T06:39:50;20.10;84.20
24011;DHT22;12217;50.792;4.372;2023-02-15T06:42:15;20.20;84.10
24011;DHT22;12217;50.792;4.372;2023-02-15T06:44:43;20.20;83.90
24011;DHT22;12217;50.792;4.372;2023-02-15T06:47:09;20.20;83.80
24011;DHT22;12217;50.792;4.372;2023-02-15T06:49:36;20.30;83.70
24011;DHT22;12217;50.792;4.372;2023-02-15T06:52:02;20.30;83.50
24011;DHT22;12217;50.792;4.372;2023-02-15T06:54:27;20.40;83.50
24011;DHT22;12217;50.792;4.372;2023-02-15T06:56:53;20.40;83.30
24011;DHT22;12217;50.792;4.372;2023-02-15T06:59:19;20.40;83.30
24011;DHT22;12217;50.792;4.372;2023-02-15T07:01:44;20.40;83.20
24011;DHT22;12217;50.792;4.372;2023-02-15T07:04:10;20.40;83.00
24011;DHT22;12217;50.792;4.372;2023-02-15T07:06:35;20.40;82.90
24011;DHT22;12217;50.792;4.372;2023-02-15T07:09:01;20.40;82.80
24011;DHT22;12217;50.792;4.372;2023-02-15T07:11:27;20.50;82.70
24011;DHT22;12217;50.792;4.372;2023-02-15T07:14:11;20.50;82.50
24011;DHT22;12217;50.792;4.372;2023-02-15T07:16:38;20.60;82.40
24011;DHT22;12217;50.792;4.372;2023-02-15T07:19:03;20.60;82.30
24011;DHT22;12217;50.792;4.372;2023-02-15T07:21:29;20.60;82.20
24011;DHT22;12217;50.792;4.372;2023-02-15T07:23:58;20.60;82.10
24011;DHT22;12217;50.792;4.372;2023-02-15T07:26:24;20.60;82.20
24011;DHT22;12217;50.792;4.372;2023-02-15T07:28:49;20.60;82.00
24011;DHT22;12217;50.792;4.372;2023-02-15T07:31:15;20.60;81.90
24011;DHT22;12217;50.792;4.372;2023-02-15T07:33:41;20.70;81.90
24011;DHT22;12217;50.792;4.372;2023-02-15T07:36:07;20.60;81.70
24011;DHT22;12217;50.792;4.372;2023-02-15T07:38:40;20.60;82.10
24011;DHT22;12217;50.792;4.372;2023-02-15T07:41:13;20.60;82.00
24011;DHT22;12217;50.792;4.372;2023-02-15T07:43:41;20.60;82.20
24011;DHT22;12217;50.792;4.372;2023-02-15T07:46:12;20.70;82.30
24011;DHT22;12217;50.792;4.372;2023-02-15T07:48:39;20.70;82.30
24011;DHT22;12217;50.792;4.372;2023-02-15T07:51:07;20.70;82.30
24011;DHT22;12217;50.792;4.372;2023-02-15T07:53:38;20.70;82.20
24011;DHT22;12217;50.792;4.372;2023-02-15T07:56:10;20.80;82.10
24011;DHT22;12217;50.792;4.372;2023-02-15T07:58:36;20.90;82.10
24011;DHT22;12217;50.792;4.372;2023-02-15T08:01:50;20.80;82.00
24011;DHT22;12217;50.792;4.372;2023-02-15T08:04:09;21.00;82.00
24011;DHT22;12217;50.792;4.372;2023-02-15T08:06:37;20.90;82.00
24011;DHT22;12217;50.792;4.372;2023-02-15T08:09:04;21.00;81.90
24011;DHT22;12217;50.792;4.372;2023-02-15T08:11:32;21.00;81.70
24011;DHT22;12217;50.792;4.372;2023-02-15T08:14:12;21.00;81.80
24011;DHT22;12217;50.792;4.372;2023-02-15T08:16:45;21.00;81.70
24011;DHT22;12217;50.792;4.372;2023-02-15T08:19:16;21.10;81.70
24011;DHT22;12217;50.792;4.372;2023-02-15T08:21:43;21.10;81.80
24011;DHT22;12217;50.792;4.372;2023-02-15T08:24:11;21.10;81.70
24011;DHT22;12217;50.792;4.372;2023-02-15T08:26:38;21.10;81.40
24011;DHT22;12217;50.792;4.372;2023-02-15T08:29:04;21.20;81.40
24011;DHT22;12217;50.792;4.372;2023-02-15T08:31:30;21.30;81.20
24011;DHT22;12217;50.792;4.372;2023-02-15T08:33:56;21.40;80.80
24011;DHT22;12217;50.792;4.372;2023-02-15T08:36:25;21.60;80.50
24011;DHT22;12217;50.792;4.372;2023-02-15T08:38:52;21.70;80.00
24011;DHT22;12217;50.792;4.372;2023-02-15T08:41:20;21.90;79.40
24011;DHT22;12217;50.792;4.372;2023-02-15T08:43:48;22.10;79.00
24011;DHT22;12217;50.792;4.372;2023-02-15T08:46:15;22.20;78.60
24011;DHT22;12217;50.792;4.372;2023-02-15T08:48:42;22.30;78.40
24011;DHT22;12217;50.792;4.372;2023-02-15T08:53:40;22.40;77.80
24011;DHT22;12217;50.792;4.372;2023-02-15T08:56:07;22.50;77.50
24011;DHT22;12217;50.792;4.372;2023-02-15T08:58:33;22.50;77.20
24011;DHT22;12217;50.792;4.372;2023-02-15T09:00:59;22.60;77.20
24011;DHT22;12217;50.792;4.372;2023-02-15T09:03:28;22.60;77.30
24011;DHT22;12217;50.792;4.372;2023-02-15T09:06:01;22.60;77.30
24011;DHT22;12217;50.792;4.372;2023-02-15T09:08:27;22.60;77.40
24011;DHT22;12217;50.792;4.372;2023-02-15T09:10:53;22.60;77.40
24011;DHT22;12217;50.792;4.372;2023-02-15T09:13:20;22.60;77.50
24011;DHT22;12217;50.792;4.372;2023-02-15T09:15:46;22.50;78.40
24011;DHT22;12217;50.792;4.372;2023-02-15T09:18:11;22.50;77.70
24011;DHT22;12217;50.792;4.372;2023-02-15T09:20:45;22.50;77.80
24011;DHT22;12217;50.792;4.372;2023-02-15T09:23:11;22.50;78.30
24011;DHT22;12217;50.792;4.372;2023-02-15T09:25:37;22.50;78.30
24011;DHT22;12217;50.792;4.372;2023-02-15T09:28:02;22.50;79.00
24011;DHT22;12217;50.792;4.372;2023-02-15T09:30:28;22.60;79.70
24011;DHT22;12217;50.792;4.372;2023-02-15T09:32:53;22.60;79.90
24011;DHT22;12217;50.792;4.372;2023-02-15T09:35:19;22.60;80.40
24011;DHT22;12217;50.792;4.372;2023-02-15T09:37:45;22.60;80.50
24011;DHT22;12217;50.792;4.372;2023-02-15T09:40:13;22.60;80.50
24011;DHT22;12217;50.792;4.372;2023-02-15T09:45:49;22.60;80.60
24011;DHT22;12217;50.792;4.372;2023-02-15T09:48:25;22.60;80.70
24011;DHT22;12217;50.792;4.372;2023-02-15T10:02:14;22.60;81.50
24011;DHT22;12217;50.792;4.372;2023-02-15T10:04:54;22.60;81.90
24011;DHT22;12217;50.792;4.372;2023-02-15T10:10:21;22.60;82.30
24011;DHT22;12217;50.792;4.372;2023-02-15T10:13:23;22.60;82.40
24011;DHT22;12217;50.792;4.372;2023-02-15T10:15:53;22.70;82.50
24011;DHT22;12217;50.792;4.372;2023-02-15T10:21:38;22.70;82.50
24011;DHT22;12217;50.792;4.372;2023-02-15T10:26:46;22.80;82.30
24011;DHT22;12217;50.792;4.372;2023-02-15T10:29:41;22.80;82.20
24011;DHT22;12217;50.792;4.372;2023-02-15T10:32:27;22.80;81.90
24011;DHT22;12217;50.792;4.372;2023-02-15T10:37:49;22.80;81.80
24011;DHT22;12217;50.792;4.372;2023-02-15T10:40:26;22.80;81.70
24011;DHT22;12217;50.792;4.372;2023-02-15T10:51:05;23.00;81.60
24011;DHT22;12217;50.792;4.372;2023-02-15T10:56:12;23.00;81.30
24011;DHT22;12217;50.792;4.372;2023-02-15T10:59:04;23.10;81.20
24011;DHT22;12217;50.792;4.372;2023-02-15T11:04:51;23.20;80.80
24011;DHT22;12217;50.792;4.372;2023-02-15T11:07:38;23.20;80.60
24011;DHT22;12217;50.792;4.372;2023-02-15T11:12:55;23.20;80.70
24011;DHT22;12217;50.792;4.372;2023-02-15T11:15:42;23.20;81.30
24011;DHT22;12217;50.792;4.372;2023-02-15T11:21:13;23.20;81.40
24011;DHT22;12217;50.792;4.372;2023-02-15T11:23:43;23.10;81.40
24011;DHT22;12217;50.792;4.372;2023-02-15T11:31:42;23.00;81.70
24011;DHT22;12217;50.792;4.372;2023-02-15T11:34:27;23.00;81.90
24011;DHT22;12217;50.792;4.372;2023-02-15T11:36:55;23.00;82.00
24011;DHT22;12217;50.792;4.372;2023-02-15T11:39:25;23.00;82.10
24011;DHT22;12217;50.792;4.372;2023-02-15T11:41:56;23.10;82.10
24011;DHT22;12217;50.792;4.372;2023-02-15T11:44:37;23.20;82.10
24011;DHT22;12217;50.792;4.372;2023-02-15T11:47:12;23.20;82.20
24011;DHT22;12217;50.792;4.372;2023-02-15T11:49:39;23.20;82.40
24011;DHT22;12217;50.792;4.372;2023-02-15T11:52:12;23.20;82.70
24011;DHT22;12217;50.792;4.372;2023-02-15T11:54:45;23.20;82.80
24011;DHT22;12217;50.792;4.372;2023-02-15T11:57:17;23.20;82.70
24011;DHT22;12217;50.792;4.372;2023-02-15T12:00:16;23.20;83.20
24011;DHT22;12217;50.792;4.372;2023-02-15T12:02:48;23.30;84.70
24011;DHT22;12217;50.792;4.372;2023-02-15T12:05:17;23.30;84.90
24011;DHT22;12217;50.792;4.372;2023-02-15T12:07:49;23.30;85.10
24011;DHT22;12217;50.792;4.372;2023-02-15T12:10:31;23.30;85.70
24011;DHT22;12217;50.792;4.372;2023-02-15T12:13:13;23.30;86.30
24011;DHT22;12217;50.792;4.372;2023-02-15T12:15:41;23.20;86.70
24011;DHT22;12217;50.792;4.372;2023-02-15T12:21:11;23.00;87.60
24011;DHT22;12217;50.792;4.372;2023-02-15T12:23:48;23.00;88.70
24011;DHT22;12217;50.792;4.372;2023-02-15T12:26:33;22.90;88.10
24011;DHT22;12217;50.792;4.372;2023-02-15T12:29:05;22.80;88.30
24011;DHT22;12217;50.792;4.372;2023-02-15T12:31:46;22.80;88.50
24011;DHT22;12217;50.792;4.372;2023-02-15T12:34:31;22.80;88.60
24011;DHT22;12217;50.792;4.372;2023-02-15T12:37:01;22.80;88.60
24011;DHT22;12217;50.792;4.372;2023-02-15T12:39:31;22.90;88.80
24011;DHT22;12217;50.792;4.372;2023-02-15T12:42:14;22.90;88.80
24011;DHT22;12217;50.792;4.372;2023-02-15T12:44:59;23.00;88.90
24011;DHT22;12217;50.792;4.372;2023-02-15T12:47:27;23.00;88.90
24011;DHT22;12217;50.792;4.372;2023-02-15T12:50:14;23.00;88.60
24011;DHT22;12217;50.792;4.372;2023-02-15T12:52:48;23.10;88.50
24011;DHT22;12217;50.792;4.372;2023-02-15T12:55:26;23.20;88.40
24011;DHT22;12217;50.792;4.372;2023-02-15T12:58:18;23.20;88.20
24011;DHT22;12217;50.792;4.372;2023-02-15T13:00:44;23.20;87.90
24011;DHT22;12217;50.792;4.372;2023-02-15T13:03:19;23.30;88.10
24011;DHT22;12217;50.792;4.372;2023-02-15T13:05:49;23.30;88.70
24011;DHT22;12217;50.792;4.372;2023-02-15T13:08:21;23.20;88.90
24011;DHT22;12217;50.792;4.372;2023-02-15T13:10:57;23.20;89.40
24011;DHT22;12217;50.792;4.372;2023-02-15T13:13:26;23.20;90.00
24011;DHT22;12217;50.792;4.372;2023-02-15T13:18:37;23.20;89.60
24011;DHT22;12217;50.792;4.372;2023-02-15T13:21:18;23.20;89.60
24011;DHT22;12217;50.792;4.372;2023-02-15T13:23:47;23.20;89.40
24011;DHT22;12217;50.792;4.372;2023-02-15T13:26:19;23.30;89.30
24011;DHT22;12217;50.792;4.372;2023-02-15T13:28:49;23.30;89.20
24011;DHT22;12217;50.792;4.372;2023-02-15T13:31:19;23.40;89.10
24011;DHT22;12217;50.792;4.372;2023-02-15T13:33:54;23.40;89.00
24011;DHT22;12217;50.792;4.372;2023-02-15T13:36:29;23.40;89.00
24011;DHT22;12217;50.792;4.372;2023-02-15T13:48:02;23.30;89.40
24011;DHT22;12217;50.792;4.372;2023-02-15T13:56:33;23.20;89.40
24011;DHT22;12217;50.792;4.372;2023-02-15T14:02:47;23.10;89.40
24011;DHT22;12217;50.792;4.372;2023-02-15T14:16:03;23.10;89.70
24011;DHT22;12217;50.792;4.372;2023-02-15T14:18:48;23.10;89.80
24011;DHT22;12217;50.792;4.372;2023-02-15T14:27:07;23.00;89.90
24011;DHT22;12217;50.792;4.372;2023-02-15T14:32:20;23.00;90.00
24011;DHT22;12217;50.792;4.372;2023-02-15T14:35:00;23.00;90.00
24011;DHT22;12217;50.792;4.372;2023-02-15T14:46:34;22.70;90.30
24011;DHT22;12217;50.792;4.372;2023-02-15T14:49:06;22.70;90.40
24011;DHT22;12217;50.792;4.372;2023-02-15T14:59:46;22.60;90.70
24011;DHT22;12217;50.792;4.372;2023-02-15T15:02:45;22.60;90.60
24011;DHT22;12217;50.792;4.372;2023-02-15T15:05:10;22.60;90.60
24011;DHT22;12217;50.792;4.372;2023-02-15T15:07:51;22.70;90.50
24011;DHT22;12217;50.792;4.372;2023-02-15T15:12:44;22.70;90.50
24011;DHT22;12217;50.792;4.372;2023-02-15T15:20:47;22.90;90.10
24011;DHT22;12217;50.792;4.372;2023-02-15T15:25:49;23.10;89.40
24011;DHT22;12217;50.792;4.372;2023-02-15T15:31:04;23.10;89.30
24011;DHT22;12217;50.792;4.372;2023-02-15T15:33:59;23.00;89.60
24011;DHT22;12217;50.792;4.372;2023-02-15T15:37:18;22.90;90.00
24011;DHT22;12217;50.792;4.372;2023-02-15T15:42:43;22.70;90.10
24011;DHT22;12217;50.792;4.372;2023-02-15T15:45:34;22.60;90.30
24011;DHT22;12217;50.792;4.372;2023-02-15T15:48:26;22.50;90.40
24011;DHT22;12217;50.792;4.372;2023-02-15T15:50:53;22.40;90.50
24011;DHT22;12217;50.792;4.372;2023-02-15T15:53:24;22.30;90.50
24011;DHT22;12217;50.792;4.372;2023-02-15T15:55:56;22.20;90.70
24011;DHT22;12217;50.792;4.372;2023-02-15T15:58:23;22.20;90.60
24011;DHT22;12217;50.792;4.372;2023-02-15T16:00:52;22.10;90.70
24011;DHT22;12217;50.792;4.372;2023-02-15T16:03:24;22.00;90.60
24011;DHT22;12217;50.792;4.372;2023-02-15T16:05:50;22.00;90.60
24011;DHT22;12217;50.792;4.372;2023-02-15T16:08:32;21.90;90.70
24011;DHT22;12217;50.792;4.372;2023-02-15T16:10:59;21.90;90.80
24011;DHT22;12217;50.792;4.372;2023-02-15T16:13:26;21.90;90.70
24011;DHT22;12217;50.792;4.372;2023-02-15T16:15:54;21.80;90.30
24011;DHT22;12217;50.792;4.372;2023-02-15T16:18:25;21.80;90.40
24011;DHT22;12217;50.792;4.372;2023-02-15T16:20:53;21.70;90.20
24011;DHT22;12217;50.792;4.372;2023-02-15T16:28:50;21.60;90.60
24011;DHT22;12217;50.792;4.372;2023-02-15T16:31:17;21.60;90.70
24011;DHT22;12217;50.792;4.372;2023-02-15T16:33:44;21.60;90.80
24011;DHT22;12217;50.792;4.372;2023-02-15T16:36:23;21.50;90.90
24011;DHT22;12217;50.792;4.372;2023-02-15T16:43:44;21.40;91.30
24011;DHT22;12217;50.792;4.372;2023-02-15T16:46:36;21.40;91.30
24011;DHT22;12217;50.792;4.372;2023-02-15T16:49:06;21.40;91.40
24011;DHT22;12217;50.792;4.372;2023-02-15T16:51:34;21.30;91.40
24011;DHT22;12217;50.792;4.372;2023-02-15T16:54:05;21.30;91.50
24011;DHT22;12217;50.792;4.372;2023-02-15T16:56:32;21.30;91.40
24011;DHT22;12217;50.792;4.372;2023-02-15T16:58:59;21.30;91.30
24011;DHT22;12217;50.792;4.372;2023-02-15T17:01:28;21.30;91.30
24011;DHT22;12217;50.792;4.372;2023-02-15T17:07:06;21.20;91.40
24011;DHT22;12217;50.792;4.372;2023-02-15T17:09:32;21.20;91.50
24011;DHT22;12217;50.792;4.372;2023-02-15T17:11:58;21.20;91.50
24011;DHT22;12217;50.792;4.372;2023-02-15T17:14:31;21.20;91.50
24011;DHT22;12217;50.792;4.372;2023-02-15T17:17:10;21.20;91.70
24011;DHT22;12217;50.792;4.372;2023-02-15T17:19:49;21.20;91.80
24011;DHT22;12217;50.792;4.372;2023-02-15T17:22:26;21.10;92.10
24011;DHT22;12217;50.792;4.372;2023-02-15T17:25:00;21.20;92.20
24011;DHT22;12217;50.792;4.372;2023-02-15T17:27:28;21.10;92.30
24011;DHT22;12217;50.792;4.372;2023-02-15T17:29:58;21.10;92.50
24011;DHT22;12217;50.792;4.372;2023-02-15T17:32:27;21.00;92.20
24011;DHT22;12217;50.792;4.372;2023-02-15T17:40:21;20.90;92.10
24011;DHT22;12217;50.792;4.372;2023-02-15T17:42:47;20.90;92.40
24011;DHT22;12217;50.792;4.372;2023-02-15T17:45:13;21.00;92.40
24011;DHT22;12217;50.792;4.372;2023-02-15T17:47:38;20.90;92.40
24011;DHT22;12217;50.792;4.372;2023-02-15T17:50:06;21.00;92.50
24011;DHT22;12217;50.792;4.372;2023-02-15T17:52:32;20.90;92.60
24011;DHT22;12217;50.792;4.372;2023-02-15T17:55:00;21.00;92.70
24011;DHT22;12217;50.792;4.372;2023-02-15T17:57:49;21.00;92.60
24011;DHT22;12217;50.792;4.372;2023-02-15T18:00:15;21.00;92.70
24011;DHT22;12217;50.792;4.372;2023-02-15T18:02:59;21.00;92.50
24011;DHT22;12217;50.792;4.372;2023-02-15T18:05:44;21.00;92.40
24011;DHT22;12217;50.792;4.372;2023-02-15T18:08:28;21.00;92.20
24011;DHT22;12217;50.792;4.372;2023-02-15T18:11:12;21.10;92.10
24011;DHT22;12217;50.792;4.372;2023-02-15T18:13:57;21.10;91.90
24011;DHT22;12217;50.792;4.372;2023-02-15T18:16:28;21.20;91.90
24011;DHT22;12217;50.792;4.372;2023-02-15T18:18:55;21.20;91.80
24011;DHT22;12217;50.792;4.372;2023-02-15T18:21:22;21.30;91.80
24011;DHT22;12217;50.792;4.372;2023-02-15T18:23:48;21.30;91.80
24011;DHT22;12217;50.792;4.372;2023-02-15T18:26:22;21.30;91.80
24011;DHT22;12217;50.792;4.372;2023-02-15T18:28:48;21.40;91.80
24011;DHT22;12217;50.792;4.372;2023-02-15T18:31:16;21.40;91.80
24011;DHT22;12217;50.792;4.372;2023-02-15T18:33:53;21.50;91.90
24011;DHT22;12217;50.792;4.372;2023-02-15T18:36:25;21.50;91.90
24011;DHT22;12217;50.792;4.372;2023-02-15T18:38:53;21.60;91.90
24011;DHT22;12217;50.792;4.372;2023-02-15T18:41:20;21.60;91.90
24011;DHT22;12217;50.792;4.372;2023-02-15T18:43:47;21.70;91.90
24011;DHT22;12217;50.792;4.372;2023-02-15T18:46:14;21.70;91.90
24011;DHT22;12217;50.792;4.372;2023-02-15T18:48:39;21.70;91.90
24011;DHT22;12217;50.792;4.372;2023-02-15T18:51:17;21.80;92.00
24011;DHT22;12217;50.792;4.372;2023-02-15T18:53:45;21.80;92.10
24011;DHT22;12217;50.792;4.372;2023-02-15T18:56:15;21.90;92.00